Time;durP1;ratioP1;P1;durP2;ratioP2;P2;SDS_P1;SDS_P2;PMS_P1;PMS_P2;Temp;Humidity;BMP_temperature;BMP_pressure;BME280_temperature;BME280_humidity;BME280_pressure;Samples;Min_cycle;Max_cycle;Signal;HPM_P1;HPM_P2
2024/02/28 00:02:04;;;;;;;;;;;23.00;43.20;;;;;;5054908;28;19931;-64
2024/02/28 00:04:30;;;;;;;;;;;23.00;43.30;;;;;;5054882;28;19928;-64
2024/02/28 00:06:58;;;;;;;;;;;23.00;43.30;;;;;;5043848;28;19936;-63
2024/02/28 00:09:25;;;;;;;;;;;23.00;43.30;;;;;;5034506;28;20338;-64
2024/02/28 00:11:52;;;;;;;;;;;23.00;43.20;;;;;;5034119;28;20024;-64
2024/02/28 00:14:19;;;;;;;;;;;22.90;43.20;;;;;;5034408;28;19972;-63
2024/02/28 00:16:46;;;;;;;;;;;23.00;43.30;;;;;;5033331;28;20455;-63
2024/02/28 00:19:13;;;;;;;;;;;23.00;43.30;;;;;;5043229;28;20015;-63
2024/02/28 00:21:40;;;;;;;;;;;22.90;43.20;;;;;;5054188;28;19978;-64
2024/02/28 00:24:08;;;;;;;;;;;22.90;43.20;;;;;;5054476;28;19932;-64
2024/02/28 00:26:35;;;;;;;;;;;22.90;43.20;;;;;;5054159;28;19924;-64
2024/02/28 00:29:02;;;;;;;;;;;22.90;43.20;;;;;;5053636;28;19935;-63
2024/02/28 00:31:29;;;;;;;;;;;22.90;43.20;;;;;;5054167;28;19925;-64
2024/02/28 00:33:56;;;;;;;;;;;22.90;43.30;;;;;;5054093;28;20294;-63
2024/02/28 00:36:23;;;;;;;;;;;22.90;43.20;;;;;;5053766;28;19931;-63
2024/02/28 00:38:50;;;;;;;;;;;22.90;43.20;;;;;;5053719;28;19994;-63
2024/02/28 00:41:17;;;;;;;;;;;22.90;43.30;;;;;;5053311;28;19947;-64
2024/02/28 00:43:44;;;;;;;;;;;22.90;43.30;;;;;;5053619;28;19929;-63
2024/02/28 00:46:12;;;;;;;;;;;22.80;43.30;;;;;;5053798;28;19994;-63
2024/02/28 00:48:39;;;;;;;;;;;22.80;43.40;;;;;;5053791;28;20384;-64
2024/02/28 00:51:08;;;;;;;;;;;22.80;43.40;;;;;;5053566;28;19925;-64
2024/02/28 00:53:35;;;;;;;;;;;22.80;43.40;;;;;;5036143;28;19960;-64
2024/02/28 00:56:03;;;;;;;;;;;22.80;43.30;;;;;;5053644;28;19999;-64
2024/02/28 00:58:30;;;;;;;;;;;22.90;43.40;;;;;;5053451;28;19925;-64
2024/02/28 01:00:57;;;;;;;;;;;22.90;43.30;;;;;;5052310;28;19998;-64
2024/02/28 01:03:24;;;;;;;;;;;22.80;43.40;;;;;;5053374;28;19928;-64
2024/02/28 01:05:51;;;;;;;;;;;22.80;43.30;;;;;;5053650;28;20395;-64
2024/02/28 01:08:18;;;;;;;;;;;22.90;43.30;;;;;;5053547;28;19991;-63
2024/02/28 01:10:45;;;;;;;;;;;22.90;43.30;;;;;;5053164;28;19931;-64
2024/02/28 01:13:13;;;;;;;;;;;22.90;43.20;;;;;;5035316;28;19986;-64
2024/02/28 01:15:41;;;;;;;;;;;22.90;43.20;;;;;;5053213;28;19932;-63
2024/02/28 01:18:09;;;;;;;;;;;22.80;43.20;;;;;;5053043;28;19924;-65
2024/02/28 01:20:36;;;;;;;;;;;22.90;43.20;;;;;;5053182;28;20332;-64
2024/02/28 01:23:03;;;;;;;;;;;22.90;43.20;;;;;;5053155;28;19924;-64
2024/02/28 01:25:31;;;;;;;;;;;22.90;43.20;;;;;;5053236;28;20024;-64
2024/02/28 01:27:58;;;;;;;;;;;22.80;43.20;;;;;;5052987;28;20388;-64
2024/02/28 01:30:25;;;;;;;;;;;22.90;43.20;;;;;;5053139;28;19925;-64
2024/02/28 01:32:53;;;;;;;;;;;22.80;43.20;;;;;;5052930;28;19932;-64
2024/02/28 01:35:20;;;;;;;;;;;22.80;43.20;;;;;;5052716;28;19925;-64
2024/02/28 01:37:47;;;;;;;;;;;22.80;43.20;;;;;;5053121;28;19951;-64
2024/02/28 01:40:14;;;;;;;;;;;22.90;43.20;;;;;;5052859;28;19925;-64
2024/02/28 01:42:41;;;;;;;;;;;22.90;43.30;;;;;;5052852;28;19925;-64
2024/02/28 01:45:12;;;;;;;;;;;22.80;43.20;;;;;;5052638;28;20006;-64
2024/02/28 01:47:41;;;;;;;;;;;22.80;43.20;;;;;;5052716;28;19935;-64
2024/02/28 01:50:09;;;;;;;;;;;22.80;43.30;;;;;;5052534;28;19924;-64
2024/02/28 01:52:37;;;;;;;;;;;22.70;43.30;;;;;;5052896;28;19929;-64
2024/02/28 01:55:05;;;;;;;;;;;22.80;43.40;;;;;;5053150;28;19924;-64
2024/02/28 01:57:33;;;;;;;;;;;22.80;43.40;;;;;;5052475;28;19928;-64
2024/02/28 02:00:00;;;;;;;;;;;22.70;43.40;;;;;;5052443;28;19924;-64
2024/02/28 02:02:27;;;;;;;;;;;22.70;43.40;;;;;;5052492;28;19924;-64
2024/02/28 02:04:55;;;;;;;;;;;22.70;43.40;;;;;;5052656;28;20015;-64
2024/02/28 02:07:21;;;;;;;;;;;22.70;43.30;;;;;;5052186;28;19983;-63
2024/02/28 02:09:50;;;;;;;;;;;22.70;43.30;;;;;;5052619;28;19970;-64
2024/02/28 02:12:17;;;;;;;;;;;22.70;43.30;;;;;;5053444;28;19925;-64
2024/02/28 02:14:47;;;;;;;;;;;22.80;43.30;;;;;;5056429;28;20358;-64
2024/02/28 02:17:14;;;;;;;;;;;22.80;43.30;;;;;;5056503;28;19951;-64
2024/02/28 02:19:41;;;;;;;;;;;22.70;43.30;;;;;;5056355;28;20019;-66
2024/02/28 02:22:10;;;;;;;;;;;22.80;43.30;;;;;;5056405;28;19925;-64
2024/02/28 02:24:36;;;;;;;;;;;22.80;43.30;;;;;;5056101;28;19925;-64
2024/02/28 02:27:04;;;;;;;;;;;22.70;43.20;;;;;;5056329;28;19975;-64
2024/02/28 02:29:31;;;;;;;;;;;22.70;43.30;;;;;;5056008;28;19929;-64
2024/02/28 02:31:59;;;;;;;;;;;22.70;43.20;;;;;;5056098;28;20282;-64
2024/02/28 02:34:25;;;;;;;;;;;22.70;43.20;;;;;;5055904;28;19982;-64
2024/02/28 02:36:52;;;;;;;;;;;22.70;43.30;;;;;;5056140;28;19947;-64
2024/02/28 02:39:19;;;;;;;;;;;22.70;43.20;;;;;;5054845;28;20034;-64
2024/02/28 02:41:47;;;;;;;;;;;22.70;43.80;;;;;;5056065;28;19947;-65
2024/02/28 02:44:14;;;;;;;;;;;22.70;43.30;;;;;;5055848;28;19929;-64
2024/02/28 02:46:41;;;;;;;;;;;22.70;43.30;;;;;;5055678;28;19929;-63
2024/02/28 02:49:08;;;;;;;;;;;22.70;43.30;;;;;;5055921;28;20366;-64
2024/02/28 02:51:35;;;;;;;;;;;22.70;43.30;;;;;;5055725;28;19925;-64
2024/02/28 02:54:02;;;;;;;;;;;22.70;43.30;;;;;;5055749;28;19929;-64
2024/02/28 02:56:29;;;;;;;;;;;22.70;43.30;;;;;;5055286;28;19986;-64
2024/02/28 02:58:56;;;;;;;;;;;22.70;43.30;;;;;;5055970;28;20377;-64
2024/02/28 03:01:23;;;;;;;;;;;22.70;43.40;;;;;;5055609;28;19925;-64
2024/02/28 03:03:50;;;;;;;;;;;22.70;43.40;;;;;;5056195;28;20324;-64
2024/02/28 03:06:17;;;;;;;;;;;22.70;43.40;;;;;;5055325;28;20011;-64
2024/02/28 03:08:44;;;;;;;;;;;22.60;43.50;;;;;;5055366;28;19929;-64
2024/02/28 03:11:11;;;;;;;;;;;22.60;43.50;;;;;;5055088;28;20389;-64
2024/02/28 03:13:38;;;;;;;;;;;22.60;43.50;;;;;;5055354;28;19952;-64
2024/02/28 03:16:05;;;;;;;;;;;22.60;43.40;;;;;;5055607;28;20336;-64
2024/02/28 03:18:32;;;;;;;;;;;22.60;43.40;;;;;;5055211;28;19950;-63
2024/02/28 03:20:59;;;;;;;;;;;22.60;43.30;;;;;;5054758;28;20412;-64
2024/02/28 03:23:28;;;;;;;;;;;22.60;43.30;;;;;;5054380;28;20216;-64
2024/02/28 03:25:55;;;;;;;;;;;22.60;43.30;;;;;;5037040;28;20362;-64
2024/02/28 03:28:22;;;;;;;;;;;22.60;43.30;;;;;;5055386;28;19956;-67
2024/02/28 03:30:49;;;;;;;;;;;22.70;43.30;;;;;;5053987;28;19925;-64
2024/02/28 03:33:16;;;;;;;;;;;22.60;43.30;;;;;;5054897;28;19924;-65
2024/02/28 03:35:43;;;;;;;;;;;22.60;43.30;;;;;;5054903;28;19925;-65
2024/02/28 03:38:10;;;;;;;;;;;22.60;43.30;;;;;;5054950;28;19928;-65
2024/02/28 03:40:37;;;;;;;;;;;22.60;43.30;;;;;;5055008;28;19929;-64
2024/02/28 03:43:04;;;;;;;;;;;22.60;43.30;;;;;;5054988;28;19940;-67
2024/02/28 03:45:36;;;;;;;;;;;22.60;43.40;;;;;;5054668;28;20035;-65
2024/02/28 03:48:03;;;;;;;;;;;22.60;43.40;;;;;;5054507;28;19924;-70
2024/02/28 03:50:30;;;;;;;;;;;22.60;43.40;;;;;;5054842;28;19929;-67
2024/02/28 03:52:57;;;;;;;;;;;22.60;43.40;;;;;;5055083;28;19925;-66
2024/02/28 03:55:24;;;;;;;;;;;22.60;43.40;;;;;;5054405;28;19939;-66
2024/02/28 03:57:51;;;;;;;;;;;22.60;43.30;;;;;;5054876;28;20019;-64
2024/02/28 04:00:19;;;;;;;;;;;22.60;43.40;;;;;;5054447;28;19925;-65
2024/02/28 04:02:46;;;;;;;;;;;22.60;43.30;;;;;;5054341;28;19925;-63
2024/02/28 04:05:13;;;;;;;;;;;22.60;43.30;;;;;;5054178;28;19971;-64
2024/02/28 04:07:40;;;;;;;;;;;22.60;43.30;;;;;;5054858;28;19925;-64
2024/02/28 04:10:07;;;;;;;;;;;22.60;43.40;;;;;;5053847;28;19925;-64
2024/02/28 04:12:34;;;;;;;;;;;22.50;43.30;;;;;;5054424;28;19998;-64
2024/02/28 04:15:02;;;;;;;;;;;22.50;43.40;;;;;;5054293;28;19924;-64
2024/02/28 04:17:29;;;;;;;;;;;22.50;43.40;;;;;;5054147;28;20015;-64
2024/02/28 04:19:57;;;;;;;;;;;22.50;43.50;;;;;;5053753;28;19925;-63
2024/02/28 04:22:24;;;;;;;;;;;22.50;43.50;;;;;;5054156;28;20399;-64
2024/02/28 04:24:51;;;;;;;;;;;22.50;44.10;;;;;;5054405;28;20364;-64
2024/02/28 04:27:18;;;;;;;;;;;22.50;43.50;;;;;;5053831;28;19924;-64
2024/02/28 04:29:45;;;;;;;;;;;22.50;43.40;;;;;;5053407;28;19940;-64
2024/02/28 04:32:12;;;;;;;;;;;22.50;43.40;;;;;;5054012;28;19980;-64
2024/02/28 04:34:39;;;;;;;;;;;22.50;43.30;;;;;;5054005;28;19948;-64
2024/02/28 04:37:06;;;;;;;;;;;22.50;43.30;;;;;;5053137;28;20025;-65
2024/02/28 04:39:33;;;;;;;;;;;22.50;43.10;;;;;;5052736;28;20427;-64
2024/02/28 04:42:00;;;;;;;;;;;22.50;42.90;;;;;;5052517;28;19931;-63
2024/02/28 04:44:27;;;;;;;;;;;22.60;42.70;;;;;;5052936;28;19979;-64
2024/02/28 04:46:54;;;;;;;;;;;22.60;42.60;;;;;;5053709;28;20309;-63
2024/02/28 04:49:23;;;;;;;;;;;22.60;42.40;;;;;;5052382;28;20328;-64
2024/02/28 04:51:50;;;;;;;;;;;22.60;42.20;;;;;;5053907;28;20358;-64
2024/02/28 04:54:17;;;;;;;;;;;22.60;42.20;;;;;;5053282;28;20378;-64
2024/02/28 04:56:44;;;;;;;;;;;22.60;42.20;;;;;;5052985;28;19960;-64
2024/02/28 04:59:11;;;;;;;;;;;22.50;42.20;;;;;;5053189;28;20431;-64
2024/02/28 05:01:45;;;;;;;;;;;22.50;42.20;;;;;;5052920;28;19924;-64
2024/02/28 05:04:13;;;;;;;;;;;22.50;42.20;;;;;;5053935;28;19936;-64
2024/02/28 05:06:40;;;;;;;;;;;22.50;42.10;;;;;;5053351;28;19935;-63
2024/02/28 05:09:07;;;;;;;;;;;22.50;42.00;;;;;;5052330;28;19925;-63
2024/02/28 05:11:34;;;;;;;;;;;22.50;41.90;;;;;;5052553;28;20369;-64
2024/02/28 05:14:01;;;;;;;;;;;22.50;41.90;;;;;;5052783;28;19999;-64
2024/02/28 05:16:30;;;;;;;;;;;22.50;41.80;;;;;;5053382;28;19929;-64
2024/02/28 05:18:57;;;;;;;;;;;22.50;41.80;;;;;;5052784;28;19924;-64
2024/02/28 05:21:24;;;;;;;;;;;22.50;41.70;;;;;;5051896;28;19929;-64
2024/02/28 05:23:51;;;;;;;;;;;22.50;41.70;;;;;;5053006;28;19931;-65
2024/02/28 05:26:17;;;;;;;;;;;22.40;41.70;;;;;;5052728;28;19926;-64
2024/02/28 05:28:44;;;;;;;;;;;22.50;41.80;;;;;;5052648;28;19928;-64
2024/02/28 05:31:22;;;;;;;;;;;22.40;41.70;;;;;;5052708;28;19975;-63
2024/02/28 05:33:50;;;;;;;;;;;22.40;41.70;;;;;;5053121;28;19928;-63
2024/02/28 05:36:18;;;;;;;;;;;22.40;41.60;;;;;;5052830;28;20385;-64
2024/02/28 05:38:45;;;;;;;;;;;22.40;41.60;;;;;;5053117;28;19967;-63
2024/02/28 05:41:12;;;;;;;;;;;22.50;41.60;;;;;;5052112;28;19924;-64
2024/02/28 05:43:40;;;;;;;;;;;22.50;41.60;;;;;;5050692;28;19968;-64
2024/02/28 05:46:07;;;;;;;;;;;22.50;41.60;;;;;;5052823;28;19980;-64
2024/02/28 05:48:34;;;;;;;;;;;22.50;41.50;;;;;;5050514;28;20517;-63
2024/02/28 05:51:01;;;;;;;;;;;22.50;41.40;;;;;;5052079;28;19929;-65
2024/02/28 05:53:32;;;;;;;;;;;22.60;41.40;;;;;;5051902;28;20428;-65
2024/02/28 05:55:59;;;;;;;;;;;22.60;41.30;;;;;;5052651;28;20416;-64
2024/02/28 05:58:26;;;;;;;;;;;22.50;41.20;;;;;;5052379;28;19932;-64
2024/02/28 06:00:53;;;;;;;;;;;22.60;41.20;;;;;;5051849;28;20378;-64
2024/02/28 06:03:20;;;;;;;;;;;22.60;41.10;;;;;;5052284;28;19924;-62
2024/02/28 06:05:47;;;;;;;;;;;22.60;41.60;;;;;;5051661;28;19925;-63
2024/02/28 06:08:14;;;;;;;;;;;22.60;41.00;;;;;;5051726;28;19925;-63
2024/02/28 06:10:42;;;;;;;;;;;22.60;41.00;;;;;;5050268;28;19978;-63
2024/02/28 06:13:18;;;;;;;;;;;22.60;40.90;;;;;;5048714;28;19929;-63
2024/02/28 06:15:45;;;;;;;;;;;22.60;40.90;;;;;;5052170;28;20016;-68
2024/02/28 06:18:12;;;;;;;;;;;22.60;40.90;;;;;;5051095;28;19928;-68
2024/02/28 06:20:39;;;;;;;;;;;22.60;40.90;;;;;;5046779;28;19933;-67
2024/02/28 06:23:06;;;;;;;;;;;22.60;41.00;;;;;;5050240;28;19925;-67
2024/02/28 06:25:43;;;;;;;;;;;22.70;41.20;;;;;;5049761;28;20381;-66
2024/02/28 06:28:10;;;;;;;;;;;22.70;41.40;;;;;;5048425;28;19928;-69
2024/02/28 06:30:37;;;;;;;;;;;22.70;41.90;;;;;;5036405;28;20785;-72
2024/02/28 06:33:04;;;;;;;;;;;22.80;41.60;;;;;;5039245;28;19933;-67
2024/02/28 06:35:32;;;;;;;;;;;22.80;41.70;;;;;;5041708;28;20289;-72
2024/02/28 06:37:59;;;;;;;;;;;22.90;41.80;;;;;;5029633;28;20366;-66
2024/02/28 06:40:26;;;;;;;;;;;23.00;41.90;;;;;;5044119;28;19925;-67
2024/02/28 06:42:57;;;;;;;;;;;23.00;42.00;;;;;;5041157;28;19932;-66
2024/02/28 06:45:24;;;;;;;;;;;23.00;41.90;;;;;;5040062;28;19929;-70
2024/02/28 06:47:51;;;;;;;;;;;23.00;42.00;;;;;;5039585;28;20499;-68
2024/02/28 06:50:22;;;;;;;;;;;23.00;42.50;;;;;;5039062;28;20274;-72
2024/02/28 06:52:49;;;;;;;;;;;23.10;42.00;;;;;;5040755;28;19932;-67
2024/02/28 06:55:16;;;;;;;;;;;23.10;42.00;;;;;;5039535;28;19929;-65
2024/02/28 06:57:43;;;;;;;;;;;23.10;42.00;;;;;;5043462;28;19982;-65
2024/02/28 07:00:18;;;;;;;;;;;23.20;42.00;;;;;;5035472;28;20352;-66
2024/02/28 07:02:46;;;;;;;;;;;23.30;42.00;;;;;;5048776;28;19947;-63
2024/02/28 07:05:13;;;;;;;;;;;23.30;42.00;;;;;;5042124;28;19933;-64
2024/02/28 07:07:40;;;;;;;;;;;23.30;41.80;;;;;;5040440;28;19933;-67
2024/02/28 07:10:07;;;;;;;;;;;23.30;41.60;;;;;;5038906;28;19932;-64
2024/02/28 07:12:35;;;;;;;;;;;23.40;41.50;;;;;;5021846;28;20703;-66
2024/02/28 07:15:02;;;;;;;;;;;23.40;41.50;;;;;;5044268;28;19933;-66
2024/02/28 07:17:29;;;;;;;;;;;23.40;41.50;;;;;;5039763;28;19944;-61
2024/02/28 07:19:56;;;;;;;;;;;23.50;41.50;;;;;;5041936;28;19928;-63
2024/02/28 07:22:23;;;;;;;;;;;23.50;41.50;;;;;;5042112;28;19941;-67
2024/02/28 07:24:50;;;;;;;;;;;23.60;41.60;;;;;;5042065;28;20018;-67
2024/02/28 07:27:17;;;;;;;;;;;23.60;41.60;;;;;;5028343;28;19972;-66
2024/02/28 07:29:44;;;;;;;;;;;23.60;41.70;;;;;;5047073;28;20342;-66
2024/02/28 07:32:11;;;;;;;;;;;23.70;41.70;;;;;;5044842;28;20423;-66
2024/02/28 07:34:39;;;;;;;;;;;23.70;41.60;;;;;;5045976;28;20348;-65
2024/02/28 07:37:06;;;;;;;;;;;23.80;41.70;;;;;;5044078;28;19948;-65
2024/02/28 07:39:33;;;;;;;;;;;23.90;41.60;;;;;;5042697;28;19931;-69
2024/02/28 07:42:00;;;;;;;;;;;23.90;41.50;;;;;;5046460;28;19955;-76
2024/02/28 07:44:30;;;;;;;;;;;24.00;41.40;;;;;;5046109;28;20024;-70
2024/02/28 07:46:58;;;;;;;;;;;24.00;41.30;;;;;;5038665;28;19944;-64
2024/02/28 07:49:25;;;;;;;;;;;24.10;41.30;;;;;;5047254;28;19979;-67
2024/02/28 07:51:54;;;;;;;;;;;24.10;41.20;;;;;;5043768;28;19933;-67
2024/02/28 07:54:22;;;;;;;;;;;24.10;41.20;;;;;;5048956;28;19931;-66
2024/02/28 07:56:50;;;;;;;;;;;24.20;41.30;;;;;;5038601;28;20063;-66
2024/02/28 07:59:18;;;;;;;;;;;24.10;41.20;;;;;;5044536;28;19986;-66
2024/02/28 08:01:45;;;;;;;;;;;24.20;41.10;;;;;;5044449;28;19933;-64
2024/02/28 08:04:13;;;;;;;;;;;24.30;41.10;;;;;;5044495;28;19947;-65
2024/02/28 08:06:40;;;;;;;;;;;24.20;40.90;;;;;;5045018;28;20336;-67
2024/02/28 08:09:07;;;;;;;;;;;24.30;40.90;;;;;;5045916;28;20378;-68
2024/02/28 08:11:39;;;;;;;;;;;24.30;40.90;;;;;;5044056;28;19933;-68
2024/02/28 08:14:06;;;;;;;;;;;24.30;41.00;;;;;;5024340;28;19931;-70
2024/02/28 08:16:33;;;;;;;;;;;24.40;41.00;;;;;;5048570;28;19932;-69
2024/02/28 08:19:00;;;;;;;;;;;24.40;41.00;;;;;;5044023;28;19924;-69
2024/02/28 08:21:29;;;;;;;;;;;24.40;40.80;;;;;;5044130;28;19931;-67
2024/02/28 08:23:57;;;;;;;;;;;24.50;40.80;;;;;;5046467;28;19929;-65
2024/02/28 08:26:24;;;;;;;;;;;24.50;40.90;;;;;;5044819;28;19933;-65
2024/02/28 08:28:51;;;;;;;;;;;24.50;41.10;;;;;;5042069;28;19964;-68
2024/02/28 08:31:18;;;;;;;;;;;24.60;41.10;;;;;;5042574;28;20267;-64
2024/02/28 08:33:45;;;;;;;;;;;24.60;41.00;;;;;;5043584;28;19939;-66
2024/02/28 08:36:13;;;;;;;;;;;24.70;41.00;;;;;;5045973;28;20007;-66
2024/02/28 08:38:40;;;;;;;;;;;24.70;40.70;;;;;;5045671;28;19976;-67
2024/02/28 08:41:08;;;;;;;;;;;24.70;40.60;;;;;;5046026;28;19924;-67
2024/02/28 08:43:38;;;;;;;;;;;24.70;40.50;;;;;;5045225;28;19933;-66
2024/02/28 08:46:06;;;;;;;;;;;24.70;40.40;;;;;;5041993;28;19972;-71
2024/02/28 08:48:33;;;;;;;;;;;24.80;40.40;;;;;;5044435;28;19935;-68
2024/02/28 08:51:00;;;;;;;;;;;24.70;40.30;;;;;;5045573;28;19925;-69
2024/02/28 08:53:27;;;;;;;;;;;24.80;40.30;;;;;;5052928;28;19943;-69
2024/02/28 08:55:54;;;;;;;;;;;24.80;40.20;;;;;;5025060;28;19929;-69
2024/02/28 08:58:21;;;;;;;;;;;24.80;40.10;;;;;;5043049;28;20443;-68
2024/02/28 09:00:49;;;;;;;;;;;24.80;40.10;;;;;;5045909;28;19929;-68
2024/02/28 09:03:16;;;;;;;;;;;24.80;40.00;;;;;;5044567;28;19935;-66
2024/02/28 09:05:43;;;;;;;;;;;24.90;40.10;;;;;;5046841;28;19974;-68
2024/02/28 09:08:10;;;;;;;;;;;24.90;40.00;;;;;;5045646;28;20042;-67
2024/02/28 09:10:40;;;;;;;;;;;24.90;39.90;;;;;;5038518;28;19933;-68
2024/02/28 09:13:07;;;;;;;;;;;24.90;40.00;;;;;;5044235;28;19932;-68
2024/02/28 09:15:34;;;;;;;;;;;24.90;39.90;;;;;;5045308;28;20304;-67
2024/02/28 09:18:02;;;;;;;;;;;24.90;40.00;;;;;;5041289;28;20377;-68
2024/02/28 09:20:29;;;;;;;;;;;24.90;40.00;;;;;;5041302;28;19937;-64
2024/02/28 09:22:56;;;;;;;;;;;25.00;40.00;;;;;;5042389;28;19940;-66
2024/02/28 09:25:23;;;;;;;;;;;25.00;40.10;;;;;;5041377;28;19925;-65
2024/02/28 09:27:54;;;;;;;;;;;25.10;40.30;;;;;;5043321;28;19943;-63
2024/02/28 09:30:22;;;;;;;;;;;25.10;40.20;;;;;;5029056;28;19929;-65
2024/02/28 09:32:51;;;;;;;;;;;25.10;40.00;;;;;;5043463;28;19929;-67
2024/02/28 09:35:19;;;;;;;;;;;25.10;39.90;;;;;;5041843;28;19979;-64
2024/02/28 09:37:46;;;;;;;;;;;25.10;39.80;;;;;;5046209;28;19928;-63
2024/02/28 09:40:13;;;;;;;;;;;25.20;39.80;;;;;;5046590;28;19929;-66
2024/02/28 09:42:40;;;;;;;;;;;25.20;39.70;;;;;;5048263;28;19929;-66
2024/02/28 09:45:09;;;;;;;;;;;25.20;39.80;;;;;;5045531;28;19960;-67
2024/02/28 09:47:36;;;;;;;;;;;25.20;39.80;;;;;;5045582;28;19936;-67
2024/02/28 09:50:04;;;;;;;;;;;25.20;39.80;;;;;;5047820;28;19960;-72
2024/02/28 09:52:31;;;;;;;;;;;25.20;39.70;;;;;;5046542;28;19933;-65
2024/02/28 09:54:58;;;;;;;;;;;25.30;39.70;;;;;;5043103;28;19933;-65
2024/02/28 09:57:28;;;;;;;;;;;25.30;39.60;;;;;;5043059;28;19936;-65
2024/02/28 09:59:57;;;;;;;;;;;25.30;39.60;;;;;;5044394;28;20007;-68
2024/02/28 10:02:25;;;;;;;;;;;25.30;39.40;;;;;;5043195;28;19986;-68
2024/02/28 10:04:52;;;;;;;;;;;25.40;39.40;;;;;;5046861;28;19925;-65
2024/02/28 10:07:19;;;;;;;;;;;25.40;39.30;;;;;;5046741;28;20007;-68
2024/02/28 10:09:46;;;;;;;;;;;25.40;39.30;;;;;;5043644;28;20023;-66
2024/02/28 10:12:14;;;;;;;;;;;25.50;39.30;;;;;;5045163;28;20400;-66
2024/02/28 10:14:41;;;;;;;;;;;25.40;39.20;;;;;;5043821;28;20434;-68
2024/02/28 10:17:08;;;;;;;;;;;25.40;39.10;;;;;;5038610;28;20390;-68
2024/02/28 10:19:35;;;;;;;;;;;25.50;39.10;;;;;;5044328;28;19968;-68
2024/02/28 10:22:03;;;;;;;;;;;25.50;39.10;;;;;;5045907;28;19929;-67
2024/02/28 10:24:30;;;;;;;;;;;25.50;39.10;;;;;;5044055;28;19936;-66
2024/02/28 10:27:00;;;;;;;;;;;25.50;39.20;;;;;;5045353;28;19978;-69
2024/02/28 10:29:28;;;;;;;;;;;25.50;39.10;;;;;;5048427;28;20329;-70
2024/02/28 10:31:55;;;;;;;;;;;25.50;39.10;;;;;;5041675;28;19925;-65
2024/02/28 10:34:22;;;;;;;;;;;25.60;39.20;;;;;;5048223;28;20612;-67
2024/02/28 10:36:51;;;;;;;;;;;25.60;39.20;;;;;;5047734;28;19937;-69
2024/02/28 10:39:18;;;;;;;;;;;25.60;39.20;;;;;;5045943;28;19986;-66
2024/02/28 10:41:46;;;;;;;;;;;25.70;39.10;;;;;;5047315;28;19940;-69
2024/02/28 10:44:14;;;;;;;;;;;25.70;39.00;;;;;;5048791;28;20018;-69
2024/02/28 10:46:42;;;;;;;;;;;25.70;38.90;;;;;;5044098;28;20341;-69
2024/02/28 10:49:09;;;;;;;;;;;25.70;38.80;;;;;;5047288;28;19979;-66
2024/02/28 10:51:37;;;;;;;;;;;25.70;38.70;;;;;;5050211;28;20386;-67
2024/02/28 10:54:09;;;;;;;;;;;25.70;38.60;;;;;;5052272;28;19928;-70
2024/02/28 10:56:36;;;;;;;;;;;25.80;38.70;;;;;;5049192;28;19933;-67
2024/02/28 10:59:05;;;;;;;;;;;25.80;38.60;;;;;;5044129;28;19937;-68
2024/02/28 11:01:37;;;;;;;;;;;25.80;38.60;;;;;;5047094;28;19933;-68
2024/02/28 11:04:05;;;;;;;;;;;25.80;38.60;;;;;;5051572;28;20275;-67
2024/02/28 11:06:32;;;;;;;;;;;25.80;38.60;;;;;;5049091;28;19931;-68
2024/02/28 11:09:00;;;;;;;;;;;25.80;39.10;;;;;;5047554;28;19990;-68
2024/02/28 11:11:33;;;;;;;;;;;25.90;38.60;;;;;;5033534;28;19972;-66
2024/02/28 11:14:01;;;;;;;;;;;25.90;38.60;;;;;;5032940;28;20019;-68
2024/02/28 11:16:30;;;;;;;;;;;25.90;38.50;;;;;;5050484;28;20386;-68
2024/02/28 11:18:57;;;;;;;;;;;25.90;38.50;;;;;;5047731;28;20027;-72
2024/02/28 11:21:25;;;;;;;;;;;26.00;38.50;;;;;;5048767;28;20000;-71
2024/02/28 11:23:57;;;;;;;;;;;26.00;38.40;;;;;;5051985;28;19924;-70
2024/02/28 11:26:24;;;;;;;;;;;26.00;38.40;;;;;;5049976;28;19933;-70
2024/02/28 11:28:51;;;;;;;;;;;26.00;38.40;;;;;;5048556;28;19933;-70
2024/02/28 11:31:21;;;;;;;;;;;26.00;38.30;;;;;;5043293;28;19940;-70
2024/02/28 11:33:48;;;;;;;;;;;26.00;38.20;;;;;;5048882;28;20409;-70
2024/02/28 11:36:15;;;;;;;;;;;26.00;38.10;;;;;;5050407;28;20305;-70
2024/02/28 11:38:43;;;;;;;;;;;26.00;38.10;;;;;;5047280;28;20015;-70
2024/02/28 11:41:10;;;;;;;;;;;26.00;38.10;;;;;;5046691;28;19952;-70
2024/02/28 11:43:37;;;;;;;;;;;26.00;38.00;;;;;;5046952;28;21894;-69
2024/02/28 11:46:10;;;;;;;;;;;26.00;38.00;;;;;;5048556;28;20008;-66
2024/02/28 11:48:39;;;;;;;;;;;26.00;38.00;;;;;;5046426;28;19935;-65
2024/02/28 11:51:06;;;;;;;;;;;26.00;37.90;;;;;;5047738;28;19929;-67
2024/02/28 11:53:33;;;;;;;;;;;26.00;37.70;;;;;;5046615;28;20015;-66
2024/02/28 11:56:00;;;;;;;;;;;26.00;37.60;;;;;;5044779;28;19928;-65
2024/02/28 11:58:27;;;;;;;;;;;26.00;37.40;;;;;;5045492;28;19943;-63
2024/02/28 12:00:55;;;;;;;;;;;25.90;36.60;;;;;;5046285;28;19933;-60
2024/02/28 12:03:23;;;;;;;;;;;25.80;35.90;;;;;;5047153;28;19944;-67
2024/02/28 12:05:50;;;;;;;;;;;25.70;35.70;;;;;;5046682;28;19932;-66
2024/02/28 12:08:19;;;;;;;;;;;25.70;36.60;;;;;;5046039;28;20198;-69
2024/02/28 12:10:46;;;;;;;;;;;25.60;36.90;;;;;;5044351;28;19976;-66
2024/02/28 12:13:20;;;;;;;;;;;25.60;37.10;;;;;;5046776;28;19933;-68
2024/02/28 12:15:48;;;;;;;;;;;25.70;37.30;;;;;;5050021;28;19933;-68
2024/02/28 12:18:15;;;;;;;;;;;25.70;37.30;;;;;;5049028;28;20400;-65
2024/02/28 12:20:42;;;;;;;;;;;25.70;37.40;;;;;;5050948;28;20027;-69
2024/02/28 12:23:09;;;;;;;;;;;25.80;37.40;;;;;;5047078;28;19925;-69
2024/02/28 12:25:37;;;;;;;;;;;25.80;37.40;;;;;;5046046;28;19929;-67
2024/02/28 12:28:06;;;;;;;;;;;25.80;37.40;;;;;;5049583;28;20440;-62
2024/02/28 12:30:40;;;;;;;;;;;25.90;37.30;;;;;;5049102;28;20267;-62
2024/02/28 12:33:07;;;;;;;;;;;25.90;37.30;;;;;;5045438;28;19929;-61
2024/02/28 12:35:34;;;;;;;;;;;25.90;37.30;;;;;;5043940;28;19950;-63
2024/02/28 12:38:01;;;;;;;;;;;25.90;37.30;;;;;;5045016;28;20378;-64
2024/02/28 12:40:28;;;;;;;;;;;26.00;37.30;;;;;;5047790;28;19932;-62
2024/02/28 12:42:55;;;;;;;;;;;25.90;37.30;;;;;;5050387;28;19990;-63
2024/02/28 12:45:22;;;;;;;;;;;25.90;37.90;;;;;;5046201;28;19929;-62
2024/02/28 12:47:53;;;;;;;;;;;25.90;37.30;;;;;;5045215;28;21653;-63
2024/02/28 12:50:21;;;;;;;;;;;25.90;37.40;;;;;;5046163;28;20158;-64
2024/02/28 12:52:53;;;;;;;;;;;25.90;37.30;;;;;;5039774;28;19987;-66
2024/02/28 12:55:21;;;;;;;;;;;25.90;37.30;;;;;;5044179;28;20378;-63
2024/02/28 12:57:48;;;;;;;;;;;25.90;37.40;;;;;;5039396;28;19942;-64
2024/02/28 13:00:16;;;;;;;;;;;25.90;37.50;;;;;;5046427;28;19929;-66
2024/02/28 13:02:44;;;;;;;;;;;26.00;37.50;;;;;;5044664;28;19973;-63
2024/02/28 13:05:12;;;;;;;;;;;26.00;37.30;;;;;;5045420;28;19931;-64
2024/02/28 13:07:40;;;;;;;;;;;26.00;37.20;;;;;;5044266;28;19928;-64
2024/02/28 13:10:08;;;;;;;;;;;26.10;37.20;;;;;;5042836;28;19925;-64
2024/02/28 13:12:37;;;;;;;;;;;26.10;37.10;;;;;;5049053;28;20472;-64
2024/02/28 13:15:05;;;;;;;;;;;26.10;37.00;;;;;;5046528;28;20339;-63
2024/02/28 13:17:32;;;;;;;;;;;26.10;36.90;;;;;;5045517;28;19976;-64
2024/02/28 13:19:59;;;;;;;;;;;26.10;37.00;;;;;;5048029;28;19976;-65
2024/02/28 13:22:26;;;;;;;;;;;26.20;37.10;;;;;;5046430;28;20356;-64
2024/02/28 13:24:53;;;;;;;;;;;26.20;37.10;;;;;;5040653;28;19925;-65
2024/02/28 13:27:21;;;;;;;;;;;26.20;37.00;;;;;;5045403;28;20019;-65
2024/02/28 13:29:47;;;;;;;;;;;26.20;36.80;;;;;;5046844;28;19933;-66
2024/02/28 13:32:14;;;;;;;;;;;26.30;36.90;;;;;;5041471;28;20016;-65
2024/02/28 13:34:41;;;;;;;;;;;26.30;36.70;;;;;;5049010;28;20074;-65
2024/02/28 13:37:12;;;;;;;;;;;26.30;36.60;;;;;;5047084;28;19964;-65
2024/02/28 13:39:39;;;;;;;;;;;26.30;36.40;;;;;;5049472;28;19924;-66
2024/02/28 13:42:09;;;;;;;;;;;26.30;36.40;;;;;;5046910;28;19978;-65
2024/02/28 13:44:36;;;;;;;;;;;26.20;36.20;;;;;;5046860;28;20389;-66
2024/02/28 13:47:03;;;;;;;;;;;26.30;36.20;;;;;;5049347;28;19975;-64
2024/02/28 13:49:30;;;;;;;;;;;26.30;36.10;;;;;;5047119;28;19925;-65
2024/02/28 13:51:57;;;;;;;;;;;26.30;36.20;;;;;;5045220;28;19943;-64
2024/02/28 13:54:24;;;;;;;;;;;26.20;36.00;;;;;;5044420;28;20048;-65
2024/02/28 13:56:51;;;;;;;;;;;26.30;36.10;;;;;;5046737;28;20420;-67
2024/02/28 13:59:18;;;;;;;;;;;26.20;36.00;;;;;;5042618;28;20382;-65
2024/02/28 14:01:45;;;;;;;;;;;26.30;36.00;;;;;;5042294;28;19960;-64
2024/02/28 14:04:13;;;;;;;;;;;26.20;36.00;;;;;;5047065;28;19932;-66
2024/02/28 14:06:40;;;;;;;;;;;26.20;35.90;;;;;;5044007;28;19935;-65
2024/02/28 14:09:07;;;;;;;;;;;26.20;35.90;;;;;;5042656;28;20362;-69
2024/02/28 14:11:33;;;;;;;;;;;26.20;36.00;;;;;;5047344;28;19978;-67
2024/02/28 14:14:01;;;;;;;;;;;26.20;36.10;;;;;;5050100;28;19929;-66
2024/02/28 14:16:29;;;;;;;;;;;26.20;36.10;;;;;;5047959;28;19933;-67
2024/02/28 14:18:56;;;;;;;;;;;26.20;36.10;;;;;;5047552;28;21039;-66